sensor_id;sensor_type;location;lat;lon;timestamp;P1;durP1;ratioP1;P2;durP2;ratioP2
40588;SDS011;26297;49.450;6.640;2023-01-23T00:55:41;4.80;;;4.00;;
40588;SDS011;26297;49.450;6.640;2023-01-23T01:03:45;6.63;;;4.05;;
40588;SDS011;26297;49.450;6.640;2023-01-23T01:29:52;5.15;;;3.67;;
40588;SDS011;26297;49.450;6.640;2023-01-23T01:35:49;4.75;;;3.60;;
40588;SDS011;26297;49.450;6.640;2023-01-23T01:39:04;4.30;;;3.42;;
40588;SDS011;26297;49.450;6.640;2023-01-23T01:42:49;5.38;;;3.78;;
40588;SDS011;26297;49.450;6.640;2023-01-23T01:46:43;4.18;;;3.42;;
40588;SDS011;26297;49.450;6.640;2023-01-23T01:50:22;6.85;;;3.67;;
40588;SDS011;26297;49.450;6.640;2023-01-23T01:53:40;4.43;;;3.60;;
40588;SDS011;26297;49.450;6.640;2023-01-23T02:16:08;5.20;;;3.30;;
40588;SDS011;26297;49.450;6.640;2023-01-23T02:22:11;3.83;;;2.97;;
40588;SDS011;26297;49.450;6.640;2023-01-23T02:25:18;3.80;;;3.50;;
40588;SDS011;26297;49.450;6.640;2023-01-23T02:28:43;4.68;;;3.30;;
40588;SDS011;26297;49.450;6.640;2023-01-23T02:31:50;3.63;;;3.08;;
40588;SDS011;26297;49.450;6.640;2023-01-23T02:34:56;3.85;;;3.00;;
40588;SDS011;26297;49.450;6.640;2023-01-23T02:38:34;3.17;;;2.88;;
40588;SDS011;26297;49.450;6.640;2023-01-23T02:41:44;6.55;;;4.10;;
40588;SDS011;26297;49.450;6.640;2023-01-23T02:50:34;3.63;;;3.00;;
40588;SDS011;26297;49.450;6.640;2023-01-23T02:53:51;3.30;;;2.88;;
40588;SDS011;26297;49.450;6.640;2023-01-23T02:59:51;4.07;;;3.47;;
40588;SDS011;26297;49.450;6.640;2023-01-23T03:03:17;4.72;;;3.60;;
40588;SDS011;26297;49.450;6.640;2023-01-23T03:06:21;5.53;;;3.22;;
40588;SDS011;26297;49.450;6.640;2023-01-23T03:09:26;3.50;;;3.20;;
40588;SDS011;26297;49.450;6.640;2023-01-23T03:12:32;4.47;;;3.25;;
40588;SDS011;26297;49.450;6.640;2023-01-23T03:15:37;4.68;;;3.60;;
40588;SDS011;26297;49.450;6.640;2023-01-23T03:18:40;3.25;;;2.78;;
40588;SDS011;26297;49.450;6.640;2023-01-23T03:21:47;4.90;;;3.75;;
40588;SDS011;26297;49.450;6.640;2023-01-23T03:24:50;4.97;;;3.40;;
40588;SDS011;26297;49.450;6.640;2023-01-23T03:27:55;3.92;;;3.13;;
40588;SDS011;26297;49.450;6.640;2023-01-23T03:30:59;3.35;;;2.95;;
40588;SDS011;26297;49.450;6.640;2023-01-23T03:34:04;4.50;;;3.30;;
40588;SDS011;26297;49.450;6.640;2023-01-23T03:37:10;4.97;;;3.75;;
40588;SDS011;26297;49.450;6.640;2023-01-23T03:40:23;4.32;;;3.28;;
40588;SDS011;26297;49.450;6.640;2023-01-23T03:43:46;4.38;;;3.17;;
40588;SDS011;26297;49.450;6.640;2023-01-23T03:47:03;4.72;;;3.38;;
40588;SDS011;26297;49.450;6.640;2023-01-23T03:50:09;4.10;;;3.17;;
40588;SDS011;26297;49.450;6.640;2023-01-23T03:53:13;4.70;;;3.72;;
40588;SDS011;26297;49.450;6.640;2023-01-23T03:56:17;4.60;;;3.97;;
40588;SDS011;26297;49.450;6.640;2023-01-23T03:59:23;3.90;;;3.50;;
40588;SDS011;26297;49.450;6.640;2023-01-23T04:02:29;3.95;;;2.88;;
40588;SDS011;26297;49.450;6.640;2023-01-23T04:05:36;3.92;;;2.72;;
40588;SDS011;26297;49.450;6.640;2023-01-23T04:08:40;3.63;;;2.85;;
40588;SDS011;26297;49.450;6.640;2023-01-23T04:14:35;3.60;;;3.17;;
40588;SDS011;26297;49.450;6.640;2023-01-23T04:17:39;3.90;;;3.28;;
40588;SDS011;26297;49.450;6.640;2023-01-23T04:20:45;3.58;;;2.92;;
40588;SDS011;26297;49.450;6.640;2023-01-23T04:23:50;3.42;;;3.05;;
40588;SDS011;26297;49.450;6.640;2023-01-23T04:26:54;4.57;;;3.33;;
40588;SDS011;26297;49.450;6.640;2023-01-23T04:29:58;4.85;;;3.67;;
40588;SDS011;26297;49.450;6.640;2023-01-23T04:33:06;3.70;;;3.33;;
40588;SDS011;26297;49.450;6.640;2023-01-23T04:36:11;3.63;;;3.33;;
40588;SDS011;26297;49.450;6.640;2023-01-23T04:39:16;3.35;;;2.35;;
40588;SDS011;26297;49.450;6.640;2023-01-23T04:42:20;3.05;;;2.42;;
40588;SDS011;26297;49.450;6.640;2023-01-23T04:45:28;3.17;;;2.40;;
40588;SDS011;26297;49.450;6.640;2023-01-23T04:48:32;2.58;;;2.35;;
40588;SDS011;26297;49.450;6.640;2023-01-23T04:51:35;3.25;;;2.40;;
40588;SDS011;26297;49.450;6.640;2023-01-23T04:54:39;3.45;;;2.63;;
40588;SDS011;26297;49.450;6.640;2023-01-23T04:57:45;3.38;;;2.83;;
40588;SDS011;26297;49.450;6.640;2023-01-23T05:00:52;3.53;;;2.80;;
40588;SDS011;26297;49.450;6.640;2023-01-23T05:04:02;3.83;;;2.75;;
40588;SDS011;26297;49.450;6.640;2023-01-23T05:07:10;3.67;;;2.53;;
40588;SDS011;26297;49.450;6.640;2023-01-23T05:10:14;3.25;;;2.90;;
40588;SDS011;26297;49.450;6.640;2023-01-23T05:13:19;3.28;;;2.80;;
40588;SDS011;26297;49.450;6.640;2023-01-23T05:16:24;3.88;;;2.75;;
40588;SDS011;26297;49.450;6.640;2023-01-23T05:19:28;2.95;;;2.20;;
40588;SDS011;26297;49.450;6.640;2023-01-23T05:22:43;3.13;;;2.20;;
40588;SDS011;26297;49.450;6.640;2023-01-23T05:25:56;3.15;;;2.45;;
40588;SDS011;26297;49.450;6.640;2023-01-23T05:28:59;2.90;;;2.10;;
40588;SDS011;26297;49.450;6.640;2023-01-23T05:32:07;3.58;;;2.40;;
40588;SDS011;26297;49.450;6.640;2023-01-23T05:35:11;4.97;;;2.22;;
40588;SDS011;26297;49.450;6.640;2023-01-23T05:38:28;3.10;;;2.22;;
40588;SDS011;26297;49.450;6.640;2023-01-23T05:41:32;2.75;;;2.40;;
40588;SDS011;26297;49.450;6.640;2023-01-23T05:44:39;3.33;;;2.67;;
40588;SDS011;26297;49.450;6.640;2023-01-23T05:50:31;2.47;;;2.13;;
40588;SDS011;26297;49.450;6.640;2023-01-23T05:53:35;3.38;;;2.80;;
40588;SDS011;26297;49.450;6.640;2023-01-23T05:56:40;2.70;;;2.28;;
40588;SDS011;26297;49.450;6.640;2023-01-23T05:59:46;2.28;;;2.08;;
40588;SDS011;26297;49.450;6.640;2023-01-23T06:02:49;1.88;;;1.77;;
40588;SDS011;26297;49.450;6.640;2023-01-23T06:05:53;3.97;;;2.42;;
40588;SDS011;26297;49.450;6.640;2023-01-23T06:08:59;2.40;;;2.17;;
40588;SDS011;26297;49.450;6.640;2023-01-23T06:12:05;2.30;;;1.80;;
40588;SDS011;26297;49.450;6.640;2023-01-23T06:15:10;2.88;;;2.58;;
40588;SDS011;26297;49.450;6.640;2023-01-23T06:18:20;3.13;;;2.63;;
40588;SDS011;26297;49.450;6.640;2023-01-23T06:21:28;3.38;;;2.85;;
40588;SDS011;26297;49.450;6.640;2023-01-23T06:24:32;2.92;;;2.22;;
40588;SDS011;26297;49.450;6.640;2023-01-23T06:33:24;3.50;;;2.60;;
40588;SDS011;26297;49.450;6.640;2023-01-23T06:36:38;3.67;;;2.80;;
40588;SDS011;26297;49.450;6.640;2023-01-23T06:42:40;4.80;;;3.53;;
40588;SDS011;26297;49.450;6.640;2023-01-23T06:45:57;6.00;;;3.45;;
40588;SDS011;26297;49.450;6.640;2023-01-23T06:49:01;4.85;;;3.28;;
40588;SDS011;26297;49.450;6.640;2023-01-23T06:52:14;5.53;;;4.10;;
40588;SDS011;26297;49.450;6.640;2023-01-23T06:55:20;5.45;;;4.25;;
40588;SDS011;26297;49.450;6.640;2023-01-23T06:58:24;4.78;;;4.10;;
40588;SDS011;26297;49.450;6.640;2023-01-23T07:01:42;3.58;;;3.08;;
40588;SDS011;26297;49.450;6.640;2023-01-23T07:04:55;4.57;;;3.60;;
40588;SDS011;26297;49.450;6.640;2023-01-23T07:08:00;3.60;;;3.22;;
40588;SDS011;26297;49.450;6.640;2023-01-23T07:11:06;6.00;;;3.67;;
40588;SDS011;26297;49.450;6.640;2023-01-23T07:14:11;4.35;;;3.42;;
40588;SDS011;26297;49.450;6.640;2023-01-23T07:17:43;2.75;;;2.33;;
40588;SDS011;26297;49.450;6.640;2023-01-23T07:20:51;4.25;;;2.72;;
40588;SDS011;26297;49.450;6.640;2023-01-23T07:23:59;3.47;;;2.80;;
40588;SDS011;26297;49.450;6.640;2023-01-23T07:27:04;4.68;;;3.05;;
40588;SDS011;26297;49.450;6.640;2023-01-23T07:30:11;3.30;;;2.20;;
40588;SDS011;26297;49.450;6.640;2023-01-23T07:33:15;2.90;;;2.60;;
40588;SDS011;26297;49.450;6.640;2023-01-23T07:36:20;2.53;;;2.20;;
40588;SDS011;26297;49.450;6.640;2023-01-23T07:39:25;2.78;;;2.20;;
40588;SDS011;26297;49.450;6.640;2023-01-23T07:42:29;3.13;;;2.33;;
40588;SDS011;26297;49.450;6.640;2023-01-23T07:45:47;2.13;;;1.88;;
40588;SDS011;26297;49.450;6.640;2023-01-23T07:49:00;2.38;;;2.17;;
40588;SDS011;26297;49.450;6.640;2023-01-23T07:54:52;4.13;;;2.35;;
40588;SDS011;26297;49.450;6.640;2023-01-23T07:57:57;4.00;;;2.63;;
40588;SDS011;26297;49.450;6.640;2023-01-23T08:01:08;2.83;;;2.33;;
40588;SDS011;26297;49.450;6.640;2023-01-23T08:04:15;2.90;;;2.15;;
40588;SDS011;26297;49.450;6.640;2023-01-23T08:10:57;2.50;;;1.90;;
40588;SDS011;26297;49.450;6.640;2023-01-23T08:14:02;3.50;;;2.60;;
40588;SDS011;26297;49.450;6.640;2023-01-23T08:17:06;2.47;;;1.85;;
40588;SDS011;26297;49.450;6.640;2023-01-23T08:20:09;3.15;;;1.92;;
40588;SDS011;26297;49.450;6.640;2023-01-23T08:23:16;3.10;;;2.13;;
40588;SDS011;26297;49.450;6.640;2023-01-23T08:26:23;3.55;;;2.40;;
40588;SDS011;26297;49.450;6.640;2023-01-23T08:29:31;2.30;;;2.10;;
40588;SDS011;26297;49.450;6.640;2023-01-23T08:32:38;2.55;;;2.15;;
40588;SDS011;26297;49.450;6.640;2023-01-23T08:58:57;3.10;;;2.33;;
40588;SDS011;26297;49.450;6.640;2023-01-23T09:02:09;3.28;;;2.42;;
40588;SDS011;26297;49.450;6.640;2023-01-23T09:05:17;3.20;;;2.60;;
40588;SDS011;26297;49.450;6.640;2023-01-23T09:08:25;7.22;;;3.47;;
40588;SDS011;26297;49.450;6.640;2023-01-23T09:16:30;4.05;;;2.78;;
40588;SDS011;26297;49.450;6.640;2023-01-23T09:19:34;2.20;;;2.00;;
40588;SDS011;26297;49.450;6.640;2023-01-23T09:22:44;2.70;;;1.85;;
40588;SDS011;26297;49.450;6.640;2023-01-23T09:29:48;3.35;;;2.60;;
40588;SDS011;26297;49.450;6.640;2023-01-23T09:33:07;2.97;;;2.33;;
40588;SDS011;26297;49.450;6.640;2023-01-23T09:36:40;3.97;;;3.47;;
40588;SDS011;26297;49.450;6.640;2023-01-23T09:40:27;4.47;;;2.90;;
40588;SDS011;26297;49.450;6.640;2023-01-23T09:43:58;3.90;;;2.92;;
40588;SDS011;26297;49.450;6.640;2023-01-23T10:32:20;3.25;;;2.58;;
40588;SDS011;26297;49.450;6.640;2023-01-23T10:47:00;4.00;;;2.43;;
40588;SDS011;26297;49.450;6.640;2023-01-23T10:58:58;4.65;;;2.70;;
40588;SDS011;26297;49.450;6.640;2023-01-23T11:02:41;3.50;;;2.58;;
40588;SDS011;26297;49.450;6.640;2023-01-23T11:06:06;3.30;;;2.75;;
40588;SDS011;26297;49.450;6.640;2023-01-23T11:13:47;3.00;;;2.22;;
40588;SDS011;26297;49.450;6.640;2023-01-23T11:17:38;5.70;;;2.80;;
40588;SDS011;26297;49.450;6.640;2023-01-23T11:44:59;5.53;;;4.00;;
40588;SDS011;26297;49.450;6.640;2023-01-23T12:11:17;8.40;;;4.35;;
40588;SDS011;26297;49.450;6.640;2023-01-23T12:17:56;2.75;;;2.22;;
40588;SDS011;26297;49.450;6.640;2023-01-23T12:21:29;3.95;;;2.63;;
40588;SDS011;26297;49.450;6.640;2023-01-23T12:28:34;2.95;;;2.47;;
40588;SDS011;26297;49.450;6.640;2023-01-23T12:32:06;2.42;;;2.17;;
40588;SDS011;26297;49.450;6.640;2023-01-23T12:39:20;2.70;;;2.50;;
40588;SDS011;26297;49.450;6.640;2023-01-23T12:49:54;6.40;;;3.58;;
40588;SDS011;26297;49.450;6.640;2023-01-23T12:53:13;3.78;;;2.70;;
40588;SDS011;26297;49.450;6.640;2023-01-23T12:56:30;3.72;;;3.15;;
40588;SDS011;26297;49.450;6.640;2023-01-23T13:54:59;4.50;;;3.10;;
40588;SDS011;26297;49.450;6.640;2023-01-23T13:58:50;4.40;;;3.58;;
40588;SDS011;26297;49.450;6.640;2023-01-23T14:06:03;3.75;;;3.10;;
40588;SDS011;26297;49.450;6.640;2023-01-23T14:09:28;4.20;;;2.92;;
40588;SDS011;26297;49.450;6.640;2023-01-23T14:12:36;3.03;;;2.65;;
40588;SDS011;26297;49.450;6.640;2023-01-23T14:19:29;4.38;;;2.35;;
40588;SDS011;26297;49.450;6.640;2023-01-23T14:22:33;2.83;;;2.05;;
40588;SDS011;26297;49.450;6.640;2023-01-23T14:25:38;2.67;;;2.35;;
40588;SDS011;26297;49.450;6.640;2023-01-23T14:28:58;3.42;;;2.45;;
40588;SDS011;26297;49.450;6.640;2023-01-23T15:55:51;2.20;;;2.00;;
40588;SDS011;26297;49.450;6.640;2023-01-23T15:58:56;2.83;;;2.13;;
40588;SDS011;26297;49.450;6.640;2023-01-23T16:02:02;2.28;;;2.08;;
40588;SDS011;26297;49.450;6.640;2023-01-23T16:05:07;1.90;;;1.80;;
40588;SDS011;26297;49.450;6.640;2023-01-23T16:08:18;2.15;;;1.95;;
40588;SDS011;26297;49.450;6.640;2023-01-23T16:11:24;3.03;;;2.50;;
40588;SDS011;26297;49.450;6.640;2023-01-23T16:14:32;3.67;;;3.30;;
40588;SDS011;26297;49.450;6.640;2023-01-23T16:21:15;2.40;;;2.20;;
40588;SDS011;26297;49.450;6.640;2023-01-23T16:24:20;2.13;;;1.92;;
40588;SDS011;26297;49.450;6.640;2023-01-23T16:27:31;4.05;;;2.20;;
40588;SDS011;26297;49.450;6.640;2023-01-23T16:30:38;2.85;;;2.22;;
40588;SDS011;26297;49.450;6.640;2023-01-23T16:33:45;3.17;;;2.25;;
40588;SDS011;26297;49.450;6.640;2023-01-23T16:36:54;3.33;;;2.05;;
40588;SDS011;26297;49.450;6.640;2023-01-23T16:48:13;2.50;;;2.13;;
40588;SDS011;26297;49.450;6.640;2023-01-23T16:51:40;2.78;;;2.20;;
40588;SDS011;26297;49.450;6.640;2023-01-23T16:59:02;2.13;;;1.70;;
40588;SDS011;26297;49.450;6.640;2023-01-23T17:05:50;1.80;;;1.70;;
40588;SDS011;26297;49.450;6.640;2023-01-23T17:09:04;2.22;;;1.60;;
40588;SDS011;26297;49.450;6.640;2023-01-23T17:12:22;3.33;;;2.28;;
40588;SDS011;26297;49.450;6.640;2023-01-23T17:15:41;3.22;;;2.08;;
40588;SDS011;26297;49.450;6.640;2023-01-23T17:22:43;3.33;;;2.10;;
40588;SDS011;26297;49.450;6.640;2023-01-23T17:28:47;2.40;;;1.90;;
40588;SDS011;26297;49.450;6.640;2023-01-23T17:36:11;1.70;;;1.60;;
40588;SDS011;26297;49.450;6.640;2023-01-23T17:43:20;3.03;;;2.20;;
40588;SDS011;26297;49.450;6.640;2023-01-23T17:46:47;2.13;;;1.92;;
40588;SDS011;26297;49.450;6.640;2023-01-23T17:50:45;2.60;;;2.20;;
40588;SDS011;26297;49.450;6.640;2023-01-23T18:09:43;3.27;;;2.47;;
40588;SDS011;26297;49.450;6.640;2023-01-23T18:54:33;5.03;;;3.73;;
40588;SDS011;26297;49.450;6.640;2023-01-23T18:58:25;4.40;;;3.00;;
40588;SDS011;26297;49.450;6.640;2023-01-23T19:05:59;3.13;;;2.83;;
40588;SDS011;26297;49.450;6.640;2023-01-23T19:09:18;5.90;;;3.33;;
40588;SDS011;26297;49.450;6.640;2023-01-23T19:12:39;6.47;;;3.72;;
40588;SDS011;26297;49.450;6.640;2023-01-23T19:22:53;3.80;;;3.05;;
40588;SDS011;26297;49.450;6.640;2023-01-23T19:50:16;3.92;;;2.95;;
40588;SDS011;26297;49.450;6.640;2023-01-23T19:53:20;4.20;;;2.63;;
40588;SDS011;26297;49.450;6.640;2023-01-23T19:56:24;5.15;;;2.72;;
40588;SDS011;26297;49.450;6.640;2023-01-23T19:59:33;3.80;;;2.90;;
40588;SDS011;26297;49.450;6.640;2023-01-23T20:02:36;3.70;;;3.00;;
40588;SDS011;26297;49.450;6.640;2023-01-23T20:05:40;5.32;;;3.08;;
40588;SDS011;26297;49.450;6.640;2023-01-23T20:08:44;4.35;;;3.15;;
40588;SDS011;26297;49.450;6.640;2023-01-23T20:11:48;4.05;;;3.08;;
40588;SDS011;26297;49.450;6.640;2023-01-23T20:22:49;4.93;;;3.70;;
40588;SDS011;26297;49.450;6.640;2023-01-23T21:26:29;3.10;;;2.45;;
40588;SDS011;26297;49.450;6.640;2023-01-23T21:29:41;2.97;;;2.65;;
40588;SDS011;26297;49.450;6.640;2023-01-23T21:32:44;6.95;;;4.18;;
40588;SDS011;26297;49.450;6.640;2023-01-23T21:35:58;6.25;;;3.58;;
40588;SDS011;26297;49.450;6.640;2023-01-23T21:39:03;7.90;;;5.07;;
40588;SDS011;26297;49.450;6.640;2023-01-23T22:06:03;5.27;;;3.10;;
40588;SDS011;26297;49.450;6.640;2023-01-23T22:09:09;4.05;;;3.17;;
40588;SDS011;26297;49.450;6.640;2023-01-23T22:12:18;4.97;;;4.05;;
40588;SDS011;26297;49.450;6.640;2023-01-23T22:15:22;6.75;;;4.60;;
40588;SDS011;26297;49.450;6.640;2023-01-23T23:19:22;4.25;;;3.15;;
40588;SDS011;26297;49.450;6.640;2023-01-23T23:22:25;3.45;;;2.75;;
40588;SDS011;26297;49.450;6.640;2023-01-23T23:25:29;3.08;;;2.45;;
40588;SDS011;26297;49.450;6.640;2023-01-23T23:28:32;4.22;;;2.92;;
40588;SDS011;26297;49.450;6.640;2023-01-23T23:31:36;3.67;;;2.90;;
40588;SDS011;26297;49.450;6.640;2023-01-23T23:34:40;3.78;;;2.33;;
40588;SDS011;26297;49.450;6.640;2023-01-23T23:37:44;4.18;;;3.10;;
40588;SDS011;26297;49.450;6.640;2023-01-23T23:41:02;4.03;;;3.10;;
40588;SDS011;26297;49.450;6.640;2023-01-23T23:44:10;3.47;;;2.88;;
40588;SDS011;26297;49.450;6.640;2023-01-23T23:47:20;5.10;;;2.90;;
40588;SDS011;26297;49.450;6.640;2023-01-23T23:50:30;4.25;;;2.95;;
40588;SDS011;26297;49.450;6.640;2023-01-23T23:53:25;4.68;;;3.13;;
40588;SDS011;26297;49.450;6.640;2023-01-23T23:57:21;4.97;;;2.97;;
